createdAt,value
2018-10-04T00:01:40.057Z,4.25
2018-10-04T00:04:08.118Z,5.30
2018-10-04T00:06:36.221Z,3.70
2018-10-04T00:09:05.212Z,4.00
2018-10-04T00:11:33.309Z,4.00
2018-10-04T00:14:01.392Z,4.35
2018-10-04T00:16:29.436Z,3.60
2018-10-04T00:18:57.521Z,4.30
2018-10-04T00:21:25.593Z,3.70
2018-10-04T00:23:53.673Z,4.87
2018-10-04T00:26:21.733Z,4.47
2018-10-04T00:28:49.804Z,3.50
2018-10-04T00:31:17.881Z,4.25
2018-10-04T00:33:45.985Z,5.05
2018-10-04T00:36:14.053Z,3.92
2018-10-04T00:38:42.109Z,3.60
2018-10-04T00:41:10.164Z,3.65
2018-10-04T00:43:38.213Z,3.70
2018-10-04T00:46:06.277Z,3.30
2018-10-04T00:48:34.389Z,3.90
2018-10-04T00:51:02.453Z,3.75
2018-10-04T00:53:30.524Z,4.25
2018-10-04T00:55:58.601Z,3.70
2018-10-04T00:58:26.729Z,4.10
2018-10-04T01:00:54.785Z,4.10
2018-10-04T01:03:23.775Z,4.35
2018-10-04T01:05:51.837Z,4.78
2018-10-04T01:08:19.913Z,4.35
2018-10-04T01:10:48.000Z,3.50
2018-10-04T01:13:16.056Z,3.80
2018-10-04T01:15:44.112Z,3.98
2018-10-04T01:18:23.782Z,3.50
2018-10-04T01:20:51.840Z,3.80
2018-10-04T01:23:19.895Z,3.52
2018-10-04T01:25:47.986Z,3.37
2018-10-04T01:28:16.045Z,3.45
2018-10-04T01:30:44.133Z,3.90
2018-10-04T01:33:12.190Z,3.97
2018-10-04T01:35:40.241Z,4.00
2018-10-04T01:38:08.316Z,4.20
2018-10-04T01:40:36.365Z,3.60
2018-10-04T01:43:09.981Z,3.42
2018-10-04T01:45:38.048Z,4.40
2018-10-04T01:48:06.130Z,3.92
2018-10-04T01:50:34.205Z,3.95
2018-10-04T01:53:02.309Z,3.60
2018-10-04T01:55:30.369Z,4.05
2018-10-04T01:57:58.413Z,4.37
2018-10-04T02:00:26.468Z,4.15
2018-10-04T02:02:54.557Z,3.65
2018-10-04T02:05:23.476Z,4.23
2018-10-04T02:07:51.810Z,3.40
2018-10-04T02:10:19.861Z,3.80
2018-10-04T02:12:47.933Z,4.03
2018-10-04T02:15:16.030Z,3.35
2018-10-04T02:17:44.089Z,4.20
2018-10-04T02:20:12.230Z,4.90
2018-10-04T02:22:40.281Z,3.08
2018-10-04T02:25:08.365Z,3.95
2018-10-04T02:27:36.432Z,4.43
2018-10-04T02:30:04.514Z,4.00
2018-10-04T02:32:32.577Z,3.90
2018-10-04T02:35:00.649Z,4.20
2018-10-04T02:37:28.720Z,3.47
2018-10-04T02:39:56.788Z,3.80
2018-10-04T02:42:24.889Z,3.70
2018-10-04T02:44:52.937Z,3.62
2018-10-04T02:47:21.040Z,3.72
2018-10-04T02:49:49.100Z,4.33
2018-10-04T02:52:17.149Z,4.00
2018-10-04T02:54:50.524Z,4.40
2018-10-04T02:57:18.617Z,4.15
2018-10-04T02:59:46.694Z,4.20
2018-10-04T03:02:14.773Z,3.17
2018-10-04T03:04:42.849Z,4.45
2018-10-04T03:07:10.913Z,4.50
2018-10-04T03:09:38.998Z,4.60
2018-10-04T03:12:07.094Z,3.70
2018-10-04T03:14:35.162Z,3.87
2018-10-04T03:17:03.229Z,4.50
2018-10-04T03:19:31.304Z,4.30
2018-10-04T03:21:59.389Z,3.98
2018-10-04T03:24:27.459Z,4.33
2018-10-04T03:26:55.537Z,4.00
2018-10-04T03:29:23.612Z,4.50
2018-10-04T03:31:51.689Z,4.30
2018-10-04T03:34:19.790Z,4.40
2018-10-04T03:36:47.846Z,4.60
2018-10-04T03:39:15.936Z,4.20
2018-10-04T03:41:43.996Z,4.42
2018-10-04T03:44:12.146Z,5.00
2018-10-04T03:46:40.157Z,4.80
2018-10-04T03:49:08.220Z,5.10
2018-10-04T03:51:36.261Z,5.12
2018-10-04T03:54:04.333Z,5.37
2018-10-04T03:56:32.422Z,4.33
2018-10-04T03:59:00.497Z,4.90
2018-10-04T04:01:28.573Z,4.85
2018-10-04T04:03:56.692Z,5.00
2018-10-04T04:06:24.712Z,4.70
2018-10-04T04:08:52.793Z,4.70
2018-10-04T04:11:20.891Z,4.75
2018-10-04T04:13:48.956Z,4.70
2018-10-04T04:16:17.036Z,5.00
2018-10-04T04:18:45.125Z,5.25
2018-10-04T04:21:13.189Z,5.20
2018-10-04T04:23:45.876Z,5.40
2018-10-04T04:26:13.953Z,5.28
2018-10-04T04:28:42.021Z,5.08
2018-10-04T04:31:10.093Z,5.60
2018-10-04T04:33:38.167Z,5.62
2018-10-04T04:36:06.272Z,5.40
2018-10-04T04:38:34.365Z,6.05
2018-10-04T04:41:02.545Z,5.37
2018-10-04T04:43:30.518Z,6.40
2018-10-04T04:45:58.733Z,5.60
2018-10-04T04:48:26.800Z,6.17
2018-10-04T04:50:54.974Z,6.25
2018-10-04T04:53:30.462Z,6.83
2018-10-04T04:55:58.553Z,6.30
2018-10-04T04:58:26.622Z,7.00
2018-10-04T05:00:54.715Z,6.58
2018-10-04T05:03:22.796Z,6.77
2018-10-04T05:05:50.888Z,7.70
2018-10-04T05:08:18.953Z,7.50
2018-10-04T05:10:47.013Z,7.40
2018-10-04T05:13:15.111Z,7.90
2018-10-04T05:15:43.202Z,7.60
2018-10-04T05:18:11.352Z,8.10
2018-10-04T05:20:39.377Z,8.43
2018-10-04T05:23:07.468Z,7.70
2018-10-04T05:25:35.557Z,8.68
2018-10-04T05:28:03.638Z,8.93
2018-10-04T05:30:31.722Z,9.70
2018-10-04T05:32:59.785Z,8.23
2018-10-04T05:35:28.502Z,8.70
2018-10-04T05:37:56.600Z,10.50
2018-10-04T05:40:24.685Z,9.23
2018-10-04T05:42:52.761Z,9.40
2018-10-04T05:45:20.876Z,8.50
2018-10-04T05:47:48.908Z,9.08
2018-10-04T05:50:16.969Z,10.48
2018-10-04T05:52:45.046Z,10.78
2018-10-04T05:55:13.129Z,10.68
2018-10-04T05:57:41.217Z,11.90
2018-10-04T06:00:20.797Z,10.08
2018-10-04T06:02:48.867Z,11.40
2018-10-04T06:05:17.011Z,11.65
2018-10-04T06:07:45.049Z,12.05
2018-10-04T06:10:13.109Z,12.40
2018-10-04T06:12:41.201Z,13.30
2018-10-04T06:15:09.356Z,13.85
2018-10-04T06:17:37.365Z,14.35
2018-10-04T06:20:05.468Z,15.25
2018-10-04T06:22:33.538Z,14.00
2018-10-04T06:25:01.620Z,14.85
2018-10-04T06:27:29.711Z,14.05
2018-10-04T06:29:57.793Z,16.25
2018-10-04T06:32:25.879Z,17.00
2018-10-04T06:34:54.012Z,16.45
2018-10-04T06:37:22.049Z,18.02
2018-10-04T06:39:50.129Z,17.77
2018-10-04T06:42:18.210Z,19.80
2018-10-04T06:44:46.514Z,20.35
2018-10-04T06:47:14.578Z,22.70
2018-10-04T06:49:42.641Z,21.82
2018-10-04T06:52:10.740Z,22.87
2018-10-04T06:54:38.808Z,23.40
2018-10-04T06:57:06.928Z,23.73
2018-10-04T06:59:34.997Z,25.08
2018-10-04T07:02:03.066Z,24.23
2018-10-04T07:04:31.150Z,25.08
2018-10-04T07:06:59.226Z,24.30
2018-10-04T07:09:27.553Z,25.92
2018-10-04T07:11:55.637Z,27.20
2018-10-04T07:14:24.018Z,26.40
2018-10-04T07:16:52.079Z,27.30
2018-10-04T07:19:20.161Z,28.17
2018-10-04T07:21:48.232Z,27.25
2018-10-04T07:24:16.378Z,27.30
2018-10-04T07:26:44.440Z,29.10
2018-10-04T07:29:12.533Z,28.50
2018-10-04T07:31:40.683Z,27.85
2018-10-04T07:34:08.752Z,28.10
2018-10-04T07:36:36.889Z,28.70
2018-10-04T07:39:07.085Z,30.50
2018-10-04T07:41:35.161Z,30.35
2018-10-04T07:44:03.277Z,30.45
2018-10-04T07:46:31.357Z,29.80
2018-10-04T07:48:59.437Z,29.57
2018-10-04T07:51:27.988Z,29.98
2018-10-04T07:53:56.073Z,29.50
2018-10-04T07:56:24.152Z,31.02
2018-10-04T07:58:52.264Z,30.25
2018-10-04T08:01:20.344Z,30.40
2018-10-04T08:03:48.421Z,30.77
2018-10-04T08:06:16.719Z,30.75
2018-10-04T08:08:44.605Z,30.97
2018-10-04T08:11:12.673Z,30.17
2018-10-04T08:13:40.781Z,30.40
2018-10-04T08:16:09.141Z,30.57
2018-10-04T08:18:37.255Z,31.25
2018-10-04T08:21:05.341Z,32.60
2018-10-04T08:23:33.376Z,33.18
2018-10-04T08:26:01.469Z,32.42
2018-10-04T08:28:29.593Z,32.10
2018-10-04T08:30:57.656Z,31.82
2018-10-04T08:33:25.750Z,30.02
2018-10-04T08:35:53.824Z,31.87
2018-10-04T08:38:21.893Z,30.92
2018-10-04T08:40:49.964Z,30.32
2018-10-04T08:43:18.094Z,31.27
2018-10-04T08:45:46.173Z,31.33
2018-10-04T08:48:14.293Z,31.27
2018-10-04T08:50:42.337Z,31.47
2018-10-04T08:53:10.396Z,32.45
2018-10-04T08:55:39.075Z,32.10
2018-10-04T08:58:07.238Z,32.58
2018-10-04T09:00:35.337Z,32.28
2018-10-04T09:03:05.028Z,32.50
2018-10-04T09:05:33.618Z,31.82
2018-10-04T09:08:01.697Z,32.30
2018-10-04T09:10:29.839Z,32.40
2018-10-04T09:12:57.912Z,30.30
2018-10-04T09:15:26.011Z,32.98
2018-10-04T09:17:54.070Z,35.80
2018-10-04T09:20:22.953Z,31.57
2018-10-04T09:22:51.033Z,32.05
2018-10-04T09:25:19.256Z,32.65
2018-10-04T09:27:47.378Z,32.05
2018-10-04T09:30:20.898Z,31.80
2018-10-04T09:32:48.953Z,30.97
2018-10-04T09:35:17.057Z,31.40
2018-10-04T09:37:45.136Z,31.70
2018-10-04T09:40:13.216Z,32.50
2018-10-04T09:42:42.152Z,33.35
2018-10-04T09:45:14.037Z,34.70
2018-10-04T09:47:42.109Z,35.03
2018-10-04T09:50:10.194Z,34.50
2018-10-04T09:52:39.540Z,33.92
2018-10-04T09:55:14.260Z,36.23
2018-10-04T09:57:43.657Z,35.23
2018-10-04T10:00:17.829Z,38.20
2018-10-04T10:02:51.294Z,37.95
2018-10-04T10:05:19.725Z,39.58
2018-10-04T10:07:48.745Z,40.83
2018-10-04T10:10:16.801Z,38.28
2018-10-04T10:12:45.708Z,39.95
2018-10-04T10:15:14.101Z,39.80
2018-10-04T10:17:42.364Z,39.33
2018-10-04T10:20:10.846Z,37.95
2018-10-04T10:22:38.897Z,37.33
2018-10-04T10:25:06.982Z,36.68
2018-10-04T10:27:35.053Z,35.90
2018-10-04T10:30:03.116Z,35.30
2018-10-04T10:32:31.198Z,36.20
2018-10-04T10:34:59.900Z,36.65
2018-10-04T10:37:28.013Z,35.75
2018-10-04T10:39:56.104Z,35.80
2018-10-04T10:42:24.193Z,35.38
2018-10-04T10:44:52.287Z,35.40
2018-10-04T10:47:20.357Z,35.08
2018-10-04T10:49:48.746Z,36.15
2018-10-04T10:52:16.869Z,38.05
2018-10-04T10:54:44.944Z,36.35
2018-10-04T10:57:13.039Z,41.95
2018-10-04T10:59:41.137Z,36.60
2018-10-04T11:02:09.212Z,37.67
2018-10-04T11:04:37.268Z,36.23
2018-10-04T11:07:05.392Z,38.45
2018-10-04T11:09:33.716Z,36.15
2018-10-04T11:12:01.873Z,35.50
2018-10-04T11:14:29.948Z,36.35
2018-10-04T11:16:58.104Z,36.53
2018-10-04T11:19:26.104Z,34.65
2018-10-04T11:21:54.221Z,36.13
2018-10-04T11:24:22.351Z,36.63
2018-10-04T11:26:50.403Z,36.35
2018-10-04T11:29:18.486Z,35.45
2018-10-04T11:31:46.557Z,35.88
2018-10-04T11:34:14.646Z,35.00
2018-10-04T11:36:43.905Z,35.05
2018-10-04T11:39:12.012Z,35.88
2018-10-04T11:41:40.769Z,37.30
2018-10-04T11:44:13.756Z,38.38
2018-10-04T11:46:42.137Z,37.85
2018-10-04T11:49:10.230Z,39.40
2018-10-04T11:51:38.309Z,38.15
2018-10-04T11:54:06.525Z,38.30
2018-10-04T11:56:34.666Z,34.92
2018-10-04T11:59:02.761Z,34.30
2018-10-04T12:01:30.900Z,33.60
2018-10-04T12:03:58.982Z,31.87
2018-10-04T12:06:27.093Z,31.12
2018-10-04T12:08:55.174Z,31.30
2018-10-04T12:11:23.255Z,28.98
2018-10-04T12:13:51.369Z,29.70
2018-10-04T12:16:19.453Z,29.85
2018-10-04T12:18:47.535Z,30.83
2018-10-04T12:21:15.596Z,31.25
2018-10-04T12:23:43.684Z,31.75
2018-10-04T12:26:11.753Z,31.90
2018-10-04T12:28:39.854Z,31.65
2018-10-04T12:31:08.018Z,30.40
2018-10-04T12:33:36.058Z,28.90
2018-10-04T12:36:04.222Z,30.77
2018-10-04T12:38:32.288Z,31.02
2018-10-04T12:41:00.437Z,29.98
2018-10-04T12:43:28.512Z,28.40
2018-10-04T12:45:56.608Z,28.17
2018-10-04T12:48:24.728Z,26.20
2018-10-04T12:50:52.817Z,26.15
2018-10-04T12:53:20.925Z,23.17
2018-10-04T12:55:49.018Z,22.02
2018-10-04T12:58:17.137Z,22.37
2018-10-04T13:00:45.226Z,21.60
2018-10-04T13:03:13.653Z,21.25
2018-10-04T13:05:41.815Z,19.75
2018-10-04T13:08:09.890Z,22.63
2018-10-04T13:10:37.950Z,21.45
2018-10-04T13:13:06.420Z,16.40
2018-10-04T13:15:34.485Z,13.90
2018-10-04T13:18:02.570Z,12.80
2018-10-04T13:20:30.748Z,12.70
2018-10-04T13:22:59.652Z,11.75
2018-10-04T13:25:27.720Z,10.78
2018-10-04T13:27:55.838Z,11.93
2018-10-04T13:30:23.865Z,10.88
2018-10-04T13:32:51.952Z,11.68
2018-10-04T13:35:20.045Z,9.25
2018-10-04T13:37:48.133Z,9.98
2018-10-04T13:40:16.196Z,10.00
2018-10-04T13:42:44.318Z,9.28
2018-10-04T13:45:12.431Z,9.60
2018-10-04T13:47:40.461Z,10.13
2018-10-04T13:50:08.529Z,9.53
2018-10-04T13:52:36.614Z,10.28
2018-10-04T13:55:04.792Z,9.63
2018-10-04T13:57:32.901Z,9.10
2018-10-04T14:00:01.024Z,9.23
2018-10-04T14:02:29.165Z,8.98
2018-10-04T14:04:57.245Z,8.93
2018-10-04T14:07:25.374Z,8.77
2018-10-04T14:09:53.450Z,9.10
2018-10-04T14:12:21.526Z,9.63
2018-10-04T14:14:49.728Z,10.63
2018-10-04T14:17:17.824Z,11.23
2018-10-04T14:19:45.888Z,11.00
2018-10-04T14:22:13.973Z,12.50
2018-10-04T14:24:42.058Z,13.35
2018-10-04T14:27:10.136Z,14.13
2018-10-04T14:29:38.223Z,14.43
2018-10-04T14:32:06.329Z,14.73
2018-10-04T14:34:34.397Z,14.83
2018-10-04T14:37:02.900Z,15.18
2018-10-04T14:39:30.994Z,16.93
2018-10-04T14:41:59.066Z,16.42
2018-10-04T14:44:27.627Z,17.20
2018-10-04T14:46:55.747Z,16.60
2018-10-04T14:49:23.901Z,17.75
2018-10-04T14:51:51.973Z,19.35
2018-10-04T14:54:20.040Z,19.25
2018-10-04T14:56:48.125Z,20.75
2018-10-04T14:59:16.191Z,20.72
2018-10-04T15:01:44.270Z,19.60
2018-10-04T15:04:12.349Z,21.65
2018-10-04T15:06:40.434Z,21.42
2018-10-04T15:09:10.009Z,21.85
2018-10-04T15:11:38.397Z,21.77
2018-10-04T15:14:06.353Z,22.50
2018-10-04T15:16:34.450Z,22.10
2018-10-04T15:19:02.521Z,22.15
2018-10-04T15:21:30.613Z,22.10
2018-10-04T15:23:58.722Z,21.85
2018-10-04T15:26:26.977Z,21.67
2018-10-04T15:28:55.056Z,21.85
2018-10-04T15:31:23.151Z,21.00
2018-10-04T15:33:51.223Z,21.35
2018-10-04T15:36:19.289Z,21.43
2018-10-04T15:38:47.621Z,20.55
2018-10-04T15:41:15.701Z,20.50
2018-10-04T15:43:43.768Z,22.87
2018-10-04T15:46:11.864Z,27.67
2018-10-04T15:48:39.946Z,23.38
2018-10-04T15:51:08.041Z,24.90
2018-10-04T15:53:36.146Z,23.38
2018-10-04T15:56:04.297Z,23.37
2018-10-04T15:58:42.026Z,23.83
2018-10-04T16:01:15.019Z,25.57
2018-10-04T16:03:45.096Z,25.30
2018-10-04T16:06:13.213Z,25.62
2018-10-04T16:08:41.313Z,26.68
2018-10-04T16:11:09.376Z,26.80
2018-10-04T16:13:37.512Z,26.77
2018-10-04T16:16:05.684Z,27.00
2018-10-04T16:18:33.765Z,27.93
2018-10-04T16:21:01.848Z,26.90
2018-10-04T16:23:29.917Z,27.15
2018-10-04T16:25:58.081Z,28.30
2018-10-04T16:28:26.172Z,28.02
2018-10-04T16:30:54.246Z,29.25
2018-10-04T16:33:22.340Z,30.00
2018-10-04T16:35:50.449Z,29.12
2018-10-04T16:38:18.595Z,31.20
2018-10-04T16:40:46.631Z,30.57
2018-10-04T16:43:14.711Z,30.62
2018-10-04T16:45:42.786Z,29.82
2018-10-04T16:48:10.849Z,32.40
2018-10-04T16:50:38.921Z,32.50
2018-10-04T16:53:07.059Z,32.63
2018-10-04T16:55:35.138Z,32.60
2018-10-04T16:58:03.229Z,35.00
2018-10-04T17:00:31.295Z,34.50
2018-10-04T17:02:59.445Z,36.10
2018-10-04T17:05:27.729Z,35.38
2018-10-04T17:07:55.808Z,35.23
2018-10-04T17:10:23.885Z,38.53
2018-10-04T17:12:51.960Z,37.42
2018-10-04T17:15:20.054Z,39.60
2018-10-04T17:17:48.148Z,42.03
2018-10-04T17:20:16.248Z,39.75
2018-10-04T17:22:44.326Z,42.60
2018-10-04T17:25:12.410Z,42.97
2018-10-04T17:27:40.485Z,46.88
2018-10-04T17:30:08.593Z,42.45
2018-10-04T17:32:37.044Z,38.60
2018-10-04T17:35:05.226Z,38.92
2018-10-04T17:37:33.308Z,37.58
2018-10-04T17:40:01.377Z,37.33
2018-10-04T17:42:29.448Z,34.63
2018-10-04T17:44:57.513Z,34.78
2018-10-04T17:47:25.625Z,33.90
2018-10-04T17:49:53.692Z,32.67
2018-10-04T17:52:21.761Z,33.02
2018-10-04T17:54:49.823Z,31.40
2018-10-04T17:57:17.928Z,32.38
2018-10-04T17:59:45.997Z,31.25
2018-10-04T18:02:14.068Z,31.48
2018-10-04T18:04:42.555Z,31.48
2018-10-04T18:07:10.606Z,32.83
2018-10-04T18:09:38.678Z,31.42
2018-10-04T18:12:06.773Z,30.57
2018-10-04T18:14:34.865Z,29.85
2018-10-04T18:17:03.221Z,29.27
2018-10-04T18:19:31.290Z,28.65
2018-10-04T18:21:59.373Z,30.57
2018-10-04T18:24:27.457Z,27.82
2018-10-04T18:26:55.517Z,30.45
2018-10-04T18:29:23.615Z,29.95
2018-10-04T18:31:51.970Z,29.57
2018-10-04T18:34:20.070Z,28.57
2018-10-04T18:36:48.165Z,26.65
2018-10-04T18:39:16.323Z,27.58
2018-10-04T18:41:44.396Z,27.35
2018-10-04T18:44:13.062Z,27.65
2018-10-04T18:46:41.133Z,27.27
2018-10-04T18:49:09.297Z,25.35
2018-10-04T18:51:37.414Z,24.90
2018-10-04T18:54:05.485Z,25.90
2018-10-04T18:56:34.202Z,23.90
2018-10-04T18:59:02.290Z,25.32
2018-10-04T19:01:30.774Z,25.50
2018-10-04T19:03:58.826Z,25.70
2018-10-04T19:06:26.952Z,24.15
2018-10-04T19:08:55.023Z,25.57
2018-10-04T19:11:23.112Z,26.43
2018-10-04T19:13:51.216Z,26.40
2018-10-04T19:16:19.317Z,24.50
2018-10-04T19:18:47.391Z,25.02
2018-10-04T19:21:15.485Z,23.95
2018-10-04T19:23:43.565Z,23.87
2018-10-04T19:26:11.662Z,23.92
2018-10-04T19:28:39.726Z,23.87
2018-10-04T19:31:07.997Z,24.43
2018-10-04T19:33:36.085Z,23.00
2018-10-04T19:36:04.186Z,24.90
2018-10-04T19:38:32.311Z,23.95
2018-10-04T19:41:00.405Z,24.95
2018-10-04T19:43:28.505Z,24.55
2018-10-04T19:45:56.611Z,24.00
2018-10-04T19:48:24.704Z,24.47
2018-10-04T19:50:52.812Z,23.70
2018-10-04T19:53:20.893Z,24.27
2018-10-04T19:55:48.956Z,23.70
2018-10-04T19:58:17.192Z,24.40
2018-10-04T20:00:45.292Z,23.15
2018-10-04T20:03:13.416Z,23.12
2018-10-04T20:05:41.810Z,23.25
2018-10-04T20:08:09.894Z,22.60
2018-10-04T20:10:37.982Z,23.63
2018-10-04T20:13:06.308Z,23.83
2018-10-04T20:15:34.361Z,22.90
2018-10-04T20:18:02.478Z,22.37
2018-10-04T20:20:30.525Z,22.45
2018-10-04T20:22:58.613Z,22.07
2018-10-04T20:25:26.697Z,22.90
2018-10-04T20:27:54.808Z,21.60
2018-10-04T20:30:22.954Z,22.70
2018-10-04T20:32:51.012Z,22.37
2018-10-04T20:35:19.083Z,22.17
2018-10-04T20:37:47.144Z,22.02
2018-10-04T20:40:15.217Z,22.30
2018-10-04T20:42:43.300Z,23.70
2018-10-04T20:45:11.474Z,22.57
2018-10-04T20:47:39.572Z,24.05
2018-10-04T20:50:07.657Z,24.25
2018-10-04T20:52:35.802Z,24.00
2018-10-04T20:55:03.817Z,24.92
2018-10-04T20:57:31.952Z,24.23
2018-10-04T21:00:00.016Z,24.10
2018-10-04T21:02:28.115Z,23.50
2018-10-04T21:04:56.167Z,23.77
2018-10-04T21:07:24.277Z,24.50
2018-10-04T21:09:52.348Z,23.92
2018-10-04T21:12:20.429Z,22.93
2018-10-04T21:14:48.529Z,24.72
2018-10-04T21:17:16.605Z,23.57
2018-10-04T21:19:44.686Z,23.40
2018-10-04T21:22:12.776Z,24.77
2018-10-04T21:24:40.835Z,22.87
2018-10-04T21:27:08.929Z,24.63
2018-10-04T21:29:37.050Z,23.77
2018-10-04T21:32:05.069Z,25.20
2018-10-04T21:34:33.238Z,24.50
2018-10-04T21:37:01.328Z,25.17
2018-10-04T21:39:29.411Z,24.18
2018-10-04T21:41:57.499Z,23.57
2018-10-04T21:44:25.585Z,23.50
2018-10-04T21:46:53.674Z,23.80
2018-10-04T21:49:21.732Z,25.57
2018-10-04T21:51:49.812Z,23.80
2018-10-04T21:54:17.886Z,24.95
2018-10-04T21:56:45.954Z,24.40
2018-10-04T21:59:14.024Z,24.95
2018-10-04T22:01:42.117Z,25.20
2018-10-04T22:04:10.185Z,24.45
2018-10-04T22:06:38.242Z,25.85
2018-10-04T22:09:07.869Z,23.67
2018-10-04T22:11:35.938Z,24.27
2018-10-04T22:14:04.020Z,25.57
2018-10-04T22:16:32.087Z,24.50
2018-10-04T22:19:00.147Z,23.43
2018-10-04T22:21:28.209Z,24.47
2018-10-04T22:23:56.301Z,23.30
2018-10-04T22:26:24.370Z,25.15
2018-10-04T22:28:52.455Z,23.20
2018-10-04T22:31:20.523Z,24.52
2018-10-04T22:33:48.613Z,24.00
2018-10-04T22:36:16.688Z,24.10
2018-10-04T22:38:44.741Z,23.50
2018-10-04T22:41:12.839Z,24.98
2018-10-04T22:43:40.905Z,23.27
2018-10-04T22:46:09.091Z,22.60
2018-10-04T22:48:37.384Z,23.42
2018-10-04T22:51:05.982Z,23.38
2018-10-04T22:53:34.089Z,22.60
2018-10-04T22:56:02.161Z,22.75
2018-10-04T22:58:30.230Z,22.80
2018-10-04T23:00:58.300Z,21.93
2018-10-04T23:03:26.381Z,21.65
2018-10-04T23:05:54.461Z,22.55
2018-10-04T23:08:22.580Z,22.52
2018-10-04T23:10:50.656Z,22.45
2018-10-04T23:13:18.784Z,22.27
2018-10-04T23:15:46.817Z,21.90
2018-10-04T23:18:14.889Z,22.27
2018-10-04T23:20:42.990Z,22.00
2018-10-04T23:23:11.051Z,22.87
2018-10-04T23:25:39.133Z,22.00
2018-10-04T23:28:07.209Z,22.07
2018-10-04T23:30:35.261Z,22.80
2018-10-04T23:33:03.349Z,22.62
2018-10-04T23:35:31.459Z,23.18
2018-10-04T23:37:59.525Z,23.32
2018-10-04T23:40:27.583Z,23.70
2018-10-04T23:42:55.640Z,23.75
2018-10-04T23:45:23.704Z,22.30
2018-10-04T23:47:51.781Z,21.82
2018-10-04T23:50:19.844Z,23.03
2018-10-04T23:52:47.904Z,23.27
2018-10-04T23:55:15.976Z,23.70
2018-10-04T23:57:44.105Z,22.95
